createdAt,value
2018-12-29T00:00:54.925Z,11.20
2018-12-29T00:03:35.602Z,9.58
2018-12-29T00:06:16.035Z,10.10
2018-12-29T00:08:56.591Z,10.85
2018-12-29T00:11:37.031Z,12.40
2018-12-29T00:14:17.387Z,11.45
2018-12-29T00:16:58.015Z,10.38
2018-12-29T00:19:38.958Z,12.03
2018-12-29T00:22:19.655Z,10.63
2018-12-29T00:25:00.524Z,10.50
2018-12-29T00:27:41.174Z,12.28
2018-12-29T00:30:21.588Z,11.85
2018-12-29T00:33:02.312Z,11.28
2018-12-29T00:35:43.004Z,11.78
2018-12-29T00:38:23.457Z,11.38
2018-12-29T00:41:04.493Z,12.90
2018-12-29T00:43:44.963Z,11.75
2018-12-29T00:46:25.795Z,10.43
2018-12-29T00:49:06.404Z,11.75
2018-12-29T00:51:47.360Z,11.50
2018-12-29T00:54:27.955Z,10.45
2018-12-29T00:57:08.427Z,11.33
2018-12-29T00:59:49.076Z,10.35
2018-12-29T01:02:29.971Z,12.25
2018-12-29T01:05:10.486Z,10.10
2018-12-29T01:07:51.499Z,9.95
2018-12-29T01:10:32.295Z,10.45
2018-12-29T01:13:12.915Z,10.35
2018-12-29T01:15:53.688Z,10.50
2018-12-29T01:18:34.215Z,9.73
2018-12-29T01:21:14.807Z,9.85
2018-12-29T01:23:55.720Z,9.00
2018-12-29T01:26:36.367Z,9.80
2018-12-29T01:29:17.301Z,9.15
2018-12-29T01:31:58.254Z,9.65
2018-12-29T01:34:38.939Z,9.80
2018-12-29T01:37:19.737Z,8.75
2018-12-29T01:40:00.348Z,9.00
2018-12-29T01:42:40.911Z,9.53
2018-12-29T01:45:21.583Z,10.60
2018-12-29T01:48:02.239Z,9.80
2018-12-29T01:50:43.011Z,9.05
2018-12-29T01:53:23.660Z,9.43
2018-12-29T01:56:04.170Z,8.53
2018-12-29T01:58:45.020Z,7.55
2018-12-29T02:01:25.691Z,9.45
2018-12-29T02:04:06.331Z,9.53
2018-12-29T02:06:47.271Z,8.40
2018-12-29T02:09:28.045Z,10.65
2018-12-29T02:12:08.851Z,9.38
2018-12-29T02:14:49.720Z,9.25
2018-12-29T02:17:30.715Z,9.43
2018-12-29T02:20:11.512Z,9.50
2018-12-29T02:22:52.054Z,8.30
2018-12-29T02:25:32.431Z,8.30
2018-12-29T02:28:12.800Z,9.55
2018-12-29T02:30:53.638Z,9.88
2018-12-29T02:33:34.715Z,10.15
2018-12-29T02:36:15.330Z,9.30
2018-12-29T02:38:56.199Z,8.55
2018-12-29T02:41:36.795Z,10.63
2018-12-29T02:44:17.503Z,10.32
2018-12-29T02:46:58.151Z,10.30
2018-12-29T02:49:38.849Z,9.75
2018-12-29T02:52:19.427Z,9.50
2018-12-29T02:55:00.200Z,10.88
2018-12-29T02:57:41.145Z,8.68
2018-12-29T03:00:21.844Z,10.00
2018-12-29T03:03:02.279Z,8.78
2018-12-29T03:05:43.178Z,9.48
2018-12-29T03:08:24.052Z,8.88
2018-12-29T03:11:04.956Z,8.13
2018-12-29T03:13:45.423Z,7.53
2018-12-29T03:16:26.226Z,9.38
2018-12-29T03:19:06.632Z,8.18
2018-12-29T03:21:47.581Z,7.53
2018-12-29T03:24:28.068Z,7.42
2018-12-29T03:27:08.513Z,7.58
2018-12-29T03:29:49.184Z,8.50
2018-12-29T03:32:29.823Z,7.75
2018-12-29T03:35:10.564Z,9.35
2018-12-29T03:37:51.243Z,8.25
2018-12-29T03:40:32.076Z,8.88
2018-12-29T03:43:12.903Z,8.10
2018-12-29T03:45:53.784Z,8.50
2018-12-29T03:48:34.708Z,8.10
2018-12-29T03:51:15.390Z,8.25
2018-12-29T03:53:56.298Z,7.20
2018-12-29T03:56:37.064Z,8.03
2018-12-29T03:59:17.771Z,8.95
2018-12-29T04:01:58.304Z,7.90
2018-12-29T04:04:39.079Z,7.85
2018-12-29T04:07:20.227Z,7.22
2018-12-29T04:10:01.089Z,8.15
2018-12-29T04:12:41.812Z,8.53
2018-12-29T04:15:22.674Z,8.88
2018-12-29T04:18:03.167Z,8.90
2018-12-29T04:20:43.667Z,7.53
2018-12-29T04:23:24.414Z,8.45
2018-12-29T04:26:05.229Z,7.50
2018-12-29T04:28:45.986Z,7.20
2018-12-29T04:31:27.007Z,8.35
2018-12-29T04:34:07.452Z,8.18
2018-12-29T04:36:48.447Z,8.00
2018-12-29T04:39:29.032Z,8.50
2018-12-29T04:42:09.408Z,8.48
2018-12-29T04:44:50.469Z,8.13
2018-12-29T04:47:31.048Z,8.73
2018-12-29T04:50:11.457Z,8.60
2018-12-29T04:52:52.111Z,8.73
2018-12-29T04:55:32.753Z,8.58
2018-12-29T04:58:13.163Z,8.98
2018-12-29T05:00:53.837Z,8.80
2018-12-29T05:03:34.355Z,7.70
2018-12-29T05:06:15.032Z,8.15
2018-12-29T05:08:55.460Z,8.43
2018-12-29T05:11:35.911Z,8.15
2018-12-29T05:14:16.416Z,8.93
2018-12-29T05:16:57.020Z,7.70
2018-12-29T05:19:37.563Z,8.85
2018-12-29T05:22:18.609Z,8.23
2018-12-29T05:24:59.359Z,8.48
2018-12-29T05:27:40.316Z,8.80
2018-12-29T05:30:21.258Z,8.15
2018-12-29T05:33:01.648Z,8.90
2018-12-29T05:35:42.339Z,7.60
2018-12-29T05:38:22.935Z,7.92
2018-12-29T05:41:03.784Z,9.88
2018-12-29T05:43:44.451Z,7.75
2018-12-29T05:46:25.049Z,8.55
2018-12-29T05:49:05.691Z,7.15
2018-12-29T05:51:46.426Z,8.55
2018-12-29T05:54:27.147Z,9.53
2018-12-29T05:57:08.163Z,8.70
2018-12-29T05:59:49.143Z,9.85
2018-12-29T06:02:29.808Z,11.85
2018-12-29T06:05:10.826Z,11.38
2018-12-29T06:07:51.863Z,11.55
2018-12-29T06:10:32.682Z,10.43
2018-12-29T06:13:13.532Z,10.43
2018-12-29T06:15:54.344Z,10.65
2018-12-29T06:18:35.299Z,10.93
2018-12-29T06:21:16.060Z,11.78
2018-12-29T06:23:56.983Z,11.18
2018-12-29T06:26:37.923Z,11.57
2018-12-29T06:29:18.937Z,12.18
2018-12-29T06:32:00.128Z,11.18
2018-12-29T06:34:40.998Z,12.35
2018-12-29T06:37:21.794Z,11.20
2018-12-29T06:40:02.579Z,12.98
2018-12-29T06:42:43.163Z,11.53
2018-12-29T06:45:23.835Z,11.85
2018-12-29T06:48:04.588Z,13.13
2018-12-29T06:50:45.099Z,13.45
2018-12-29T06:53:25.951Z,16.37
2018-12-29T06:56:06.787Z,14.18
2018-12-29T06:58:47.567Z,15.25
2018-12-29T07:01:28.731Z,15.10
2018-12-29T07:04:09.957Z,16.15
2018-12-29T07:06:50.928Z,17.00
2018-12-29T07:09:31.782Z,14.63
2018-12-29T07:12:12.612Z,14.75
2018-12-29T07:14:53.146Z,14.87
2018-12-29T07:17:34.218Z,14.80
2018-12-29T07:20:14.956Z,15.55
2018-12-29T07:22:55.859Z,16.07
2018-12-29T07:25:36.490Z,17.82
2018-12-29T07:28:17.499Z,18.45
2018-12-29T07:30:58.088Z,18.82
2018-12-29T07:33:38.592Z,18.85
2018-12-29T07:36:19.215Z,21.10
2018-12-29T07:38:59.579Z,18.77
2018-12-29T07:41:40.107Z,17.77
2018-12-29T07:44:20.527Z,19.32
2018-12-29T07:47:01.047Z,20.40
2018-12-29T07:49:42.100Z,19.15
2018-12-29T07:52:22.612Z,18.87
2018-12-29T07:55:03.163Z,20.00
2018-12-29T07:57:43.801Z,19.70
2018-12-29T08:00:24.723Z,18.42
2018-12-29T08:03:05.555Z,18.98
2018-12-29T08:05:46.202Z,17.15
2018-12-29T08:08:27.092Z,20.12
2018-12-29T08:11:07.680Z,17.12
2018-12-29T08:13:48.055Z,19.60
2018-12-29T08:16:28.854Z,20.08
2018-12-29T08:19:09.431Z,19.62
2018-12-29T08:21:49.966Z,19.57
2018-12-29T08:24:30.375Z,21.62
2018-12-29T08:27:11.215Z,19.05
2018-12-29T08:29:52.193Z,20.48
2018-12-29T08:32:33.028Z,18.48
2018-12-29T08:35:13.940Z,18.82
2018-12-29T08:37:55.179Z,20.65
2018-12-29T08:40:35.950Z,20.02
2018-12-29T08:43:16.967Z,21.48
2018-12-29T08:45:57.932Z,18.55
2018-12-29T08:48:39.104Z,18.12
2018-12-29T08:51:19.663Z,19.67
2018-12-29T08:54:00.478Z,18.80
2018-12-29T08:56:41.007Z,19.65
2018-12-29T08:59:21.797Z,21.50
2018-12-29T09:02:02.654Z,18.48
2018-12-29T09:04:43.436Z,17.25
2018-12-29T09:07:24.311Z,19.45
2018-12-29T09:10:05.878Z,16.48
2018-12-29T09:12:47.149Z,17.10
2018-12-29T09:15:28.087Z,19.12
2018-12-29T09:18:08.429Z,16.95
2018-12-29T09:20:48.868Z,17.90
2018-12-29T09:23:29.887Z,20.82
2018-12-29T09:26:10.739Z,20.80
2018-12-29T09:28:51.311Z,17.50
2018-12-29T09:31:31.814Z,18.12
2018-12-29T09:34:12.359Z,18.20
2018-12-29T09:36:52.943Z,17.42
2018-12-29T09:39:33.239Z,18.20
2018-12-29T09:42:13.888Z,18.55
2018-12-29T09:44:54.214Z,17.55
2018-12-29T09:47:34.783Z,17.95
2018-12-29T09:50:15.665Z,18.80
2018-12-29T09:52:56.213Z,19.40
2018-12-29T09:55:37.204Z,20.27
2018-12-29T09:58:17.954Z,18.02
2018-12-29T10:00:58.921Z,16.95
2018-12-29T10:03:39.715Z,14.93
2018-12-29T10:06:20.770Z,17.02
2018-12-29T10:09:01.586Z,16.70
2018-12-29T10:11:42.087Z,18.25
2018-12-29T10:14:22.799Z,15.25
2018-12-29T10:17:03.132Z,15.30
2018-12-29T10:19:44.019Z,14.85
2018-12-29T10:22:24.940Z,17.23
2018-12-29T10:25:06.027Z,16.97
2018-12-29T10:27:46.616Z,16.82
2018-12-29T10:30:27.426Z,15.45
2018-12-29T10:33:07.770Z,17.05
2018-12-29T10:35:48.557Z,18.85
2018-12-29T10:38:29.247Z,18.75
2018-12-29T10:41:09.677Z,15.25
2018-12-29T10:43:49.971Z,17.20
2018-12-29T10:46:30.853Z,19.10
2018-12-29T10:49:11.223Z,20.32
2018-12-29T10:51:51.908Z,18.98
2018-12-29T10:54:32.876Z,17.25
2018-12-29T10:57:13.879Z,15.05
2018-12-29T10:59:54.329Z,15.48
2018-12-29T11:02:35.383Z,15.18
2018-12-29T11:05:16.094Z,14.83
2018-12-29T11:07:56.623Z,14.95
2018-12-29T11:10:37.221Z,14.98
2018-12-29T11:13:18.339Z,15.58
2018-12-29T11:15:59.388Z,14.70
2018-12-29T11:18:39.936Z,14.60
2018-12-29T11:21:20.861Z,16.17
2018-12-29T11:24:01.688Z,14.60
2018-12-29T11:26:42.780Z,14.70
2018-12-29T11:29:23.612Z,14.78
2018-12-29T11:32:04.267Z,13.20
2018-12-29T11:34:44.812Z,13.25
2018-12-29T11:37:25.137Z,14.58
2018-12-29T11:40:05.640Z,13.15
2018-12-29T11:42:46.783Z,14.73
2018-12-29T11:45:27.534Z,13.53
2018-12-29T11:48:08.220Z,15.13
2018-12-29T11:50:48.705Z,13.60
2018-12-29T11:53:29.427Z,14.45
2018-12-29T11:56:10.135Z,13.98
2018-12-29T11:58:50.689Z,13.62
2018-12-29T12:01:31.278Z,11.68
2018-12-29T12:04:11.984Z,11.78
2018-12-29T12:06:52.856Z,13.90
2018-12-29T12:09:33.736Z,14.40
2018-12-29T12:12:14.427Z,12.35
2018-12-29T12:14:55.090Z,12.60
2018-12-29T12:17:35.859Z,12.40
2018-12-29T12:20:16.620Z,13.00
2018-12-29T12:22:57.462Z,12.28
2018-12-29T12:25:38.476Z,11.10
2018-12-29T12:28:19.319Z,12.63
2018-12-29T12:31:00.047Z,12.30
2018-12-29T12:33:40.920Z,13.10
2018-12-29T12:36:21.395Z,12.53
2018-12-29T12:39:02.138Z,12.33
2018-12-29T12:41:42.836Z,13.00
2018-12-29T12:44:23.785Z,11.15
2018-12-29T12:47:04.774Z,11.78
2018-12-29T12:49:48.215Z,12.75
2018-12-29T12:52:29.287Z,11.70
2018-12-29T12:55:09.979Z,10.08
2018-12-29T12:57:50.818Z,10.65
2018-12-29T13:00:31.836Z,10.25
2018-12-29T13:03:12.807Z,11.25
2018-12-29T13:05:53.738Z,11.33
2018-12-29T13:08:34.627Z,9.40
2018-12-29T13:11:15.334Z,9.95
2018-12-29T13:13:56.712Z,10.82
2018-12-29T13:16:37.103Z,9.90
2018-12-29T13:19:17.816Z,10.23
2018-12-29T13:21:58.659Z,10.25
2018-12-29T13:24:39.495Z,10.32
2018-12-29T13:27:20.300Z,11.12
2018-12-29T13:30:01.136Z,9.08
2018-12-29T13:32:42.271Z,9.95
2018-12-29T13:35:22.973Z,8.93
2018-12-29T13:38:03.835Z,8.70
2018-12-29T13:40:44.766Z,9.28
2018-12-29T13:43:25.428Z,10.78
2018-12-29T13:46:06.111Z,9.23
2018-12-29T13:48:46.724Z,10.70
2018-12-29T13:51:27.828Z,11.55
2018-12-29T13:54:08.690Z,10.30
2018-12-29T13:56:49.264Z,9.83
2018-12-29T13:59:30.316Z,8.80
2018-12-29T14:02:10.890Z,9.60
2018-12-29T14:04:51.570Z,8.85
2018-12-29T14:07:32.506Z,9.73
2018-12-29T14:10:13.349Z,10.13
2018-12-29T14:12:54.174Z,9.45
2018-12-29T14:15:35.113Z,8.75
2018-12-29T14:18:15.876Z,9.43
2018-12-29T14:20:56.680Z,8.55
2018-12-29T14:23:37.420Z,8.98
2018-12-29T14:26:18.041Z,9.98
2018-12-29T14:28:58.849Z,9.35
2018-12-29T14:31:39.698Z,10.70
2018-12-29T14:34:20.710Z,9.45
2018-12-29T14:37:01.287Z,8.30
2018-12-29T14:39:42.278Z,8.55
2018-12-29T14:42:23.376Z,9.28
2018-12-29T14:45:03.888Z,9.08
2018-12-29T14:47:44.658Z,8.15
2018-12-29T14:50:25.426Z,9.50
2018-12-29T14:53:06.385Z,7.72
2018-12-29T14:55:47.174Z,9.45
2018-12-29T14:58:27.847Z,7.47
2018-12-29T15:01:08.496Z,8.43
2018-12-29T15:03:49.230Z,8.40
2018-12-29T15:06:29.755Z,9.85
2018-12-29T15:09:10.887Z,8.70
2018-12-29T15:11:51.711Z,8.83
2018-12-29T15:14:32.550Z,8.35
2018-12-29T15:17:13.456Z,7.50
2018-12-29T15:19:54.405Z,7.72
2018-12-29T15:22:35.119Z,15.00
2018-12-29T15:25:16.039Z,9.90
2018-12-29T15:27:56.757Z,12.07
2018-12-29T15:30:37.547Z,10.43
2018-12-29T15:33:18.068Z,9.35
2018-12-29T15:35:58.467Z,9.90
2018-12-29T15:38:38.851Z,8.73
2018-12-29T15:41:19.492Z,8.80
2018-12-29T15:44:00.243Z,9.03
2018-12-29T15:46:41.071Z,9.88
2018-12-29T15:49:21.996Z,10.63
2018-12-29T15:52:02.508Z,10.48
2018-12-29T15:54:43.144Z,8.65
2018-12-29T15:57:23.712Z,9.00
2018-12-29T16:00:04.257Z,9.43
2018-12-29T16:02:44.804Z,11.50
2018-12-29T16:05:25.526Z,10.35
2018-12-29T16:08:06.170Z,10.23
2018-12-29T16:10:47.067Z,9.15
2018-12-29T16:13:28.203Z,11.05
2018-12-29T16:16:08.806Z,12.35
2018-12-29T16:18:49.259Z,10.28
2018-12-29T16:21:30.130Z,10.60
2018-12-29T16:24:10.844Z,11.05
2018-12-29T16:26:52.150Z,9.75
2018-12-29T16:29:32.703Z,13.08
2018-12-29T16:32:13.376Z,11.15
2018-12-29T16:34:54.287Z,12.50
2018-12-29T16:37:35.377Z,13.10
2018-12-29T16:40:15.963Z,13.48
2018-12-29T16:42:56.348Z,15.00
2018-12-29T16:45:37.322Z,12.73
2018-12-29T16:48:18.180Z,13.45
2018-12-29T16:50:58.808Z,11.60
2018-12-29T16:53:39.732Z,13.08
2018-12-29T16:56:20.622Z,13.45
2018-12-29T16:59:01.988Z,12.35
2018-12-29T17:01:42.683Z,12.47
2018-12-29T17:04:23.623Z,12.10
2018-12-29T17:07:04.104Z,12.40
2018-12-29T17:09:44.751Z,14.85
2018-12-29T17:12:26.155Z,13.80
2018-12-29T17:15:06.714Z,14.45
2018-12-29T17:17:47.303Z,14.47
2018-12-29T17:20:27.935Z,14.23
2018-12-29T17:23:08.791Z,12.60
2018-12-29T17:25:50.174Z,16.52
2018-12-29T17:28:30.491Z,14.65
2018-12-29T17:31:11.237Z,15.15
2018-12-29T17:33:52.006Z,14.93
2018-12-29T17:36:32.570Z,14.95
2018-12-29T17:39:12.940Z,13.75
2018-12-29T17:41:53.877Z,15.08
2018-12-29T17:44:34.663Z,14.28
2018-12-29T17:47:15.206Z,13.28
2018-12-29T17:49:55.593Z,13.50
2018-12-29T17:52:36.342Z,14.98
2018-12-29T17:55:17.876Z,15.30
2018-12-29T17:57:59.814Z,15.23
2018-12-29T18:00:41.107Z,13.95
2018-12-29T18:03:21.939Z,14.93
2018-12-29T18:06:02.832Z,13.95
2018-12-29T18:08:43.158Z,11.90
2018-12-29T18:11:24.179Z,12.63
2018-12-29T18:14:04.910Z,10.68
2018-12-29T18:16:47.796Z,10.15
2018-12-29T18:19:30.612Z,11.30
2018-12-29T18:22:11.437Z,10.70
2018-12-29T18:24:52.127Z,12.73
2018-12-29T18:27:32.602Z,9.40
2018-12-29T18:30:13.475Z,10.40
2018-12-29T18:32:54.297Z,11.93
2018-12-29T18:35:34.749Z,11.00
2018-12-29T18:38:15.544Z,10.75
2018-12-29T18:40:56.054Z,12.53
2018-12-29T18:43:36.443Z,11.45
2018-12-29T18:46:17.298Z,10.93
2018-12-29T18:48:58.135Z,10.60
2018-12-29T18:51:38.490Z,10.40
2018-12-29T18:54:18.987Z,10.40
2018-12-29T18:56:59.335Z,11.68
2018-12-29T18:59:39.711Z,10.82
2018-12-29T19:02:20.359Z,12.68
2018-12-29T19:05:00.940Z,14.35
2018-12-29T19:07:41.436Z,15.88
2018-12-29T19:10:23.397Z,15.43
2018-12-29T19:13:04.412Z,14.90
2018-12-29T19:15:46.193Z,17.95
2018-12-29T19:18:26.719Z,15.45
2018-12-29T19:21:07.656Z,12.65
2018-12-29T19:23:48.315Z,13.43
2018-12-29T19:26:29.199Z,15.08
2018-12-29T19:29:10.629Z,15.15
2018-12-29T19:31:52.541Z,13.85
2018-12-29T19:34:34.015Z,13.88
2018-12-29T19:37:15.647Z,13.70
2018-12-29T19:39:56.016Z,13.30
2018-12-29T19:42:36.807Z,15.30
2018-12-29T19:45:17.515Z,15.95
2018-12-29T19:47:59.047Z,13.48
2018-12-29T19:50:39.630Z,13.05
2018-12-29T19:53:20.342Z,14.00
2018-12-29T19:56:01.360Z,12.82
2018-12-29T19:58:42.283Z,13.83
2018-12-29T20:01:22.676Z,15.78
2018-12-29T20:04:03.375Z,14.03
2018-12-29T20:06:43.967Z,15.30
2018-12-29T20:09:24.985Z,17.12
2018-12-29T20:12:05.580Z,16.07
2018-12-29T20:14:46.452Z,15.95
2018-12-29T20:17:34.560Z,15.43
2018-12-29T20:20:09.638Z,14.80
2018-12-29T20:22:50.469Z,13.70
2018-12-29T20:25:31.114Z,13.58
2018-12-29T20:28:11.679Z,11.65
2018-12-29T20:30:52.155Z,12.65
2018-12-29T20:33:33.059Z,13.45
2018-12-29T20:36:13.779Z,12.88
2018-12-29T20:38:54.908Z,11.55
2018-12-29T20:41:35.659Z,12.10
2018-12-29T20:44:16.465Z,12.25
2018-12-29T20:46:57.316Z,11.53
2018-12-29T20:49:38.219Z,12.70
2018-12-29T20:52:18.718Z,13.28
2018-12-29T20:54:59.363Z,13.95
2018-12-29T20:57:40.333Z,14.38
2018-12-29T21:00:20.927Z,12.93
2018-12-29T21:03:01.827Z,12.75
2018-12-29T21:05:42.371Z,11.38
2018-12-29T21:08:22.883Z,11.88
2018-12-29T21:11:04.424Z,11.93
2018-12-29T21:13:45.380Z,11.43
2018-12-29T21:16:26.065Z,11.73
2018-12-29T21:19:06.975Z,11.75
2018-12-29T21:21:48.208Z,12.63
2018-12-29T21:24:28.953Z,11.80
2018-12-29T21:27:09.676Z,12.28
2018-12-29T21:29:50.885Z,12.73
2018-12-29T21:32:31.459Z,12.25
2018-12-29T21:35:12.195Z,11.70
2018-12-29T21:37:52.990Z,15.80
2018-12-29T21:40:33.711Z,13.75
2018-12-29T21:43:14.204Z,13.70
2018-12-29T21:45:54.746Z,12.88
2018-12-29T21:48:36.258Z,13.30
2018-12-29T21:51:16.777Z,12.47
2018-12-29T21:53:57.658Z,11.48
2018-12-29T21:56:38.232Z,12.78
2018-12-29T21:59:19.426Z,12.05
2018-12-29T22:02:00.122Z,13.60
2018-12-29T22:04:40.893Z,14.07
2018-12-29T22:07:21.840Z,13.75
2018-12-29T22:09:50.388Z,13.25
2018-12-29T22:12:38.292Z,14.85
2018-12-29T22:15:26.179Z,14.58
2018-12-29T22:18:15.736Z,13.08
2018-12-29T22:21:03.667Z,16.62
2018-12-29T22:23:51.576Z,12.60
2018-12-29T22:26:39.459Z,14.23
2018-12-29T22:29:27.370Z,18.85
2018-12-29T22:32:15.458Z,18.12
2018-12-29T22:35:03.398Z,17.32
2018-12-29T22:37:51.275Z,19.75
2018-12-29T22:40:39.175Z,19.45
2018-12-29T22:43:27.051Z,17.20
2018-12-29T22:46:14.963Z,15.72
2018-12-29T22:49:02.847Z,16.23
2018-12-29T22:51:50.747Z,16.00
2018-12-29T22:54:38.643Z,14.93
2018-12-29T22:57:26.543Z,13.93
2018-12-29T23:03:23.223Z,12.45
2018-12-29T23:06:11.112Z,13.65
2018-12-29T23:08:59.016Z,12.63
2018-12-29T23:11:46.970Z,13.32
2018-12-29T23:14:34.880Z,13.05
2018-12-29T23:17:24.399Z,12.43
2018-12-29T23:20:12.301Z,12.47
2018-12-29T23:23:00.171Z,12.80
2018-12-29T23:25:40.952Z,12.05
2018-12-29T23:28:21.713Z,11.30
2018-12-29T23:31:02.585Z,12.23
2018-12-29T23:33:43.172Z,12.35
2018-12-29T23:36:24.115Z,13.58
2018-12-29T23:39:04.992Z,12.60
2018-12-29T23:41:45.837Z,13.05
2018-12-29T23:44:26.442Z,11.03
2018-12-29T23:47:07.477Z,10.90
2018-12-29T23:49:48.502Z,10.25
2018-12-29T23:52:29.031Z,9.75
2018-12-29T23:55:10.160Z,10.82
2018-12-29T23:57:50.868Z,11.55
